sensor_id;sensor_type;location;lat;lon;timestamp;P1;P2;P0
39955;PMS5003;25631;51.516;-0.470;2022-09-14T00:02:14;6;5;
39955;PMS5003;25631;51.516;-0.470;2022-09-14T00:04:51;6;5;
39955;PMS5003;25631;51.516;-0.470;2022-09-14T00:07:27;6;4;
39955;PMS5003;25631;51.516;-0.470;2022-09-14T00:10:04;6;4;
39955;PMS5003;25631;51.516;-0.470;2022-09-14T00:12:41;6;4;
39955;PMS5003;25631;51.516;-0.470;2022-09-14T00:15:17;6;4;
39955;PMS5003;25631;51.516;-0.470;2022-09-14T00:17:53;6;4;
39955;PMS5003;25631;51.516;-0.470;2022-09-14T00:20:30;6;4;
39955;PMS5003;25631;51.516;-0.470;2022-09-14T00:23:07;4;4;
39955;PMS5003;25631;51.516;-0.470;2022-09-14T00:25:43;4;4;
39955;PMS5003;25631;51.516;-0.470;2022-09-14T00:28:19;4;4;
39955;PMS5003;25631;51.516;-0.470;2022-09-14T00:30:56;4;4;
39955;PMS5003;25631;51.516;-0.470;2022-09-14T00:33:32;4;4;
39955;PMS5003;25631;51.516;-0.470;2022-09-14T00:36:10;4;4;
39955;PMS5003;25631;51.516;-0.470;2022-09-14T00:38:49;4;4;
39955;PMS5003;25631;51.516;-0.470;2022-09-14T00:41:26;4;4;
39955;PMS5003;25631;51.516;-0.470;2022-09-14T00:44:06;4;4;
39955;PMS5003;25631;51.516;-0.470;2022-09-14T00:47:32;5;5;
39955;PMS5003;25631;51.516;-0.470;2022-09-14T00:50:10;5;5;
39955;PMS5003;25631;51.516;-0.470;2022-09-14T00:52:47;5;5;
39955;PMS5003;25631;51.516;-0.470;2022-09-14T00:55:24;5;4;
39955;PMS5003;25631;51.516;-0.470;2022-09-14T00:58:01;5;4;
39955;PMS5003;25631;51.516;-0.470;2022-09-14T01:00:37;5;4;
39955;PMS5003;25631;51.516;-0.470;2022-09-14T01:03:13;4;3;
39955;PMS5003;25631;51.516;-0.470;2022-09-14T01:05:54;10;9;
39955;PMS5003;25631;51.516;-0.470;2022-09-14T01:08:42;10;9;
39955;PMS5003;25631;51.516;-0.470;2022-09-14T01:11:31;10;9;
39955;PMS5003;25631;51.516;-0.470;2022-09-14T01:14:20;11;9;
39955;PMS5003;25631;51.516;-0.470;2022-09-14T01:17:06;11;9;
39955;PMS5003;25631;51.516;-0.470;2022-09-14T01:19:56;11;9;
39955;PMS5003;25631;51.516;-0.470;2022-09-14T01:22:48;9;9;
39955;PMS5003;25631;51.516;-0.470;2022-09-14T01:25:35;9;9;
39955;PMS5003;25631;51.516;-0.470;2022-09-14T01:28:28;9;9;
39955;PMS5003;25631;51.516;-0.470;2022-09-14T01:31:10;8;8;
39955;PMS5003;25631;51.516;-0.470;2022-09-14T01:33:52;8;8;
39955;PMS5003;25631;51.516;-0.470;2022-09-14T01:36:40;8;8;
39955;PMS5003;25631;51.516;-0.470;2022-09-14T01:39:21;8;8;
39955;PMS5003;25631;51.516;-0.470;2022-09-14T01:41:57;8;8;
39955;PMS5003;25631;51.516;-0.470;2022-09-14T01:44:36;8;8;
39955;PMS5003;25631;51.516;-0.470;2022-09-14T01:47:15;6;6;
39955;PMS5003;25631;51.516;-0.470;2022-09-14T01:49:57;6;6;
39955;PMS5003;25631;51.516;-0.470;2022-09-14T01:52:40;6;6;
39955;PMS5003;25631;51.516;-0.470;2022-09-14T01:55:20;6;6;
39955;PMS5003;25631;51.516;-0.470;2022-09-14T01:58:00;6;6;
39955;PMS5003;25631;51.516;-0.470;2022-09-14T02:00:43;6;6;
39955;PMS5003;25631;51.516;-0.470;2022-09-14T02:03:21;6;6;
39955;PMS5003;25631;51.516;-0.470;2022-09-14T02:06:04;6;6;
39955;PMS5003;25631;51.516;-0.470;2022-09-14T02:08:45;6;6;
39955;PMS5003;25631;51.516;-0.470;2022-09-14T02:11:21;6;6;
39955;PMS5003;25631;51.516;-0.470;2022-09-14T02:13:58;6;6;
39955;PMS5003;25631;51.516;-0.470;2022-09-14T02:16:34;6;6;
39955;PMS5003;25631;51.516;-0.470;2022-09-14T02:19:11;6;6;
39955;PMS5003;25631;51.516;-0.470;2022-09-14T02:21:48;6;6;
39955;PMS5003;25631;51.516;-0.470;2022-09-14T02:24:24;7;6;
39955;PMS5003;25631;51.516;-0.470;2022-09-14T02:27:02;7;6;
39955;PMS5003;25631;51.516;-0.470;2022-09-14T02:29:40;7;6;
39955;PMS5003;25631;51.516;-0.470;2022-09-14T02:32:19;5;5;
39955;PMS5003;25631;51.516;-0.470;2022-09-14T02:35:04;5;5;
39955;PMS5003;25631;51.516;-0.470;2022-09-14T02:37:52;5;5;
39955;PMS5003;25631;51.516;-0.470;2022-09-14T02:40:35;5;5;
39955;PMS5003;25631;51.516;-0.470;2022-09-14T02:43:18;5;5;
39955;PMS5003;25631;51.516;-0.470;2022-09-14T02:46:03;5;5;
39955;PMS5003;25631;51.516;-0.470;2022-09-14T02:48:48;5;5;
39955;PMS5003;25631;51.516;-0.470;2022-09-14T02:51:32;5;5;
39955;PMS5003;25631;51.516;-0.470;2022-09-14T02:54:11;5;5;
39955;PMS5003;25631;51.516;-0.470;2022-09-14T02:56:51;5;5;
39955;PMS5003;25631;51.516;-0.470;2022-09-14T02:59:27;4;4;
39955;PMS5003;25631;51.516;-0.470;2022-09-14T03:02:04;4;4;
39955;PMS5003;25631;51.516;-0.470;2022-09-14T03:04:41;4;4;
39955;PMS5003;25631;51.516;-0.470;2022-09-14T03:07:17;4;4;
39955;PMS5003;25631;51.516;-0.470;2022-09-14T03:09:53;5;5;
39955;PMS5003;25631;51.516;-0.470;2022-09-14T03:12:30;5;5;
39955;PMS5003;25631;51.516;-0.470;2022-09-14T03:15:06;2;2;
39955;PMS5003;25631;51.516;-0.470;2022-09-14T03:17:44;2;2;
39955;PMS5003;25631;51.516;-0.470;2022-09-14T03:20:22;2;2;
39955;PMS5003;25631;51.516;-0.470;2022-09-14T03:23:00;2;2;
39955;PMS5003;25631;51.516;-0.470;2022-09-14T03:25:39;2;2;
39955;PMS5003;25631;51.516;-0.470;2022-09-14T03:28:16;2;2;
39955;PMS5003;25631;51.516;-0.470;2022-09-14T03:30:52;2;2;
39955;PMS5003;25631;51.516;-0.470;2022-09-14T03:33:29;3;2;
39955;PMS5003;25631;51.516;-0.470;2022-09-14T03:36:10;3;2;
39955;PMS5003;25631;51.516;-0.470;2022-09-14T03:38:50;3;2;
39955;PMS5003;25631;51.516;-0.470;2022-09-14T03:41:28;3;2;
39955;PMS5003;25631;51.516;-0.470;2022-09-14T03:44:04;4;3;
39955;PMS5003;25631;51.516;-0.470;2022-09-14T03:46:40;4;3;
39955;PMS5003;25631;51.516;-0.470;2022-09-14T03:49:18;4;3;
39955;PMS5003;25631;51.516;-0.470;2022-09-14T03:51:55;4;3;
39955;PMS5003;25631;51.516;-0.470;2022-09-14T03:54:31;4;3;
39955;PMS5003;25631;51.516;-0.470;2022-09-14T03:57:07;4;4;
39955;PMS5003;25631;51.516;-0.470;2022-09-14T03:59:44;4;4;
39955;PMS5003;25631;51.516;-0.470;2022-09-14T04:02:20;5;4;
39955;PMS5003;25631;51.516;-0.470;2022-09-14T04:04:57;5;4;
39955;PMS5003;25631;51.516;-0.470;2022-09-14T04:07:33;5;4;
39955;PMS5003;25631;51.516;-0.470;2022-09-14T04:10:10;5;4;
39955;PMS5003;25631;51.516;-0.470;2022-09-14T04:12:46;5;4;
39955;PMS5003;25631;51.516;-0.470;2022-09-14T04:15:22;5;4;
39955;PMS5003;25631;51.516;-0.470;2022-09-14T04:17:59;5;4;
39955;PMS5003;25631;51.516;-0.470;2022-09-14T04:20:35;5;4;
39955;PMS5003;25631;51.516;-0.470;2022-09-14T04:23:12;5;4;
39955;PMS5003;25631;51.516;-0.470;2022-09-14T04:25:48;7;5;
39955;PMS5003;25631;51.516;-0.470;2022-09-14T04:28:24;7;5;
39955;PMS5003;25631;51.516;-0.470;2022-09-14T04:31:01;7;5;
39955;PMS5003;25631;51.516;-0.470;2022-09-14T04:33:38;7;5;
39955;PMS5003;25631;51.516;-0.470;2022-09-14T04:36:16;7;5;
39955;PMS5003;25631;51.516;-0.470;2022-09-14T04:38:55;4;4;
39955;PMS5003;25631;51.516;-0.470;2022-09-14T04:41:32;4;3;
39955;PMS5003;25631;51.516;-0.470;2022-09-14T04:44:09;4;3;
39955;PMS5003;25631;51.516;-0.470;2022-09-14T04:46:45;4;3;
39955;PMS5003;25631;51.516;-0.470;2022-09-14T04:49:22;4;3;
39955;PMS5003;25631;51.516;-0.470;2022-09-14T04:51:58;5;4;
39955;PMS5003;25631;51.516;-0.470;2022-09-14T04:54:34;5;4;
39955;PMS5003;25631;51.516;-0.470;2022-09-14T04:57:11;4;4;
39955;PMS5003;25631;51.516;-0.470;2022-09-14T04:59:47;4;4;
39955;PMS5003;25631;51.516;-0.470;2022-09-14T05:02:24;4;4;
39955;PMS5003;25631;51.516;-0.470;2022-09-14T05:05:00;4;4;
39955;PMS5003;25631;51.516;-0.470;2022-09-14T05:07:36;4;4;
39955;PMS5003;25631;51.516;-0.470;2022-09-14T05:10:13;3;3;
39955;PMS5003;25631;51.516;-0.470;2022-09-14T05:12:49;3;3;
39955;PMS5003;25631;51.516;-0.470;2022-09-14T05:15:26;3;3;
39955;PMS5003;25631;51.516;-0.470;2022-09-14T05:18:02;3;3;
39955;PMS5003;25631;51.516;-0.470;2022-09-14T05:20:39;2;2;
39955;PMS5003;25631;51.516;-0.470;2022-09-14T05:23:15;2;2;
39955;PMS5003;25631;51.516;-0.470;2022-09-14T05:25:51;2;2;
39955;PMS5003;25631;51.516;-0.470;2022-09-14T05:28:28;2;2;
39955;PMS5003;25631;51.516;-0.470;2022-09-14T05:31:05;2;2;
39955;PMS5003;25631;51.516;-0.470;2022-09-14T05:33:43;2;2;
39955;PMS5003;25631;51.516;-0.470;2022-09-14T05:36:19;3;3;
39955;PMS5003;25631;51.516;-0.470;2022-09-14T05:38:56;3;3;
39955;PMS5003;25631;51.516;-0.470;2022-09-14T05:41:32;3;3;
39955;PMS5003;25631;51.516;-0.470;2022-09-14T05:44:09;2;2;
39955;PMS5003;25631;51.516;-0.470;2022-09-14T05:46:45;2;2;
39955;PMS5003;25631;51.516;-0.470;2022-09-14T05:49:22;2;2;
39955;PMS5003;25631;51.516;-0.470;2022-09-14T05:51:58;3;3;
39955;PMS5003;25631;51.516;-0.470;2022-09-14T05:54:34;3;3;
39955;PMS5003;25631;51.516;-0.470;2022-09-14T05:57:10;3;3;
39955;PMS5003;25631;51.516;-0.470;2022-09-14T05:59:47;3;3;
39955;PMS5003;25631;51.516;-0.470;2022-09-14T06:02:23;3;2;
39955;PMS5003;25631;51.516;-0.470;2022-09-14T06:05:00;3;3;
39955;PMS5003;25631;51.516;-0.470;2022-09-14T06:07:36;3;3;
39955;PMS5003;25631;51.516;-0.470;2022-09-14T06:10:13;3;3;
39955;PMS5003;25631;51.516;-0.470;2022-09-14T06:12:49;3;2;
39955;PMS5003;25631;51.516;-0.470;2022-09-14T06:15:25;3;2;
39955;PMS5003;25631;51.516;-0.470;2022-09-14T06:18:01;3;2;
39955;PMS5003;25631;51.516;-0.470;2022-09-14T06:20:38;3;2;
39955;PMS5003;25631;51.516;-0.470;2022-09-14T06:23:14;3;2;
39955;PMS5003;25631;51.516;-0.470;2022-09-14T06:25:51;3;2;
39955;PMS5003;25631;51.516;-0.470;2022-09-14T06:28:28;3;2;
39955;PMS5003;25631;51.516;-0.470;2022-09-14T06:31:05;3;2;
39955;PMS5003;25631;51.516;-0.470;2022-09-14T06:33:43;3;2;
39955;PMS5003;25631;51.516;-0.470;2022-09-14T06:36:20;3;2;
39955;PMS5003;25631;51.516;-0.470;2022-09-14T06:38:59;3;2;
39955;PMS5003;25631;51.516;-0.470;2022-09-14T06:41:36;3;2;
39955;PMS5003;25631;51.516;-0.470;2022-09-14T06:44:12;0;0;
39955;PMS5003;25631;51.516;-0.470;2022-09-14T06:46:48;0;0;
39955;PMS5003;25631;51.516;-0.470;2022-09-14T06:49:25;1;1;
39955;PMS5003;25631;51.516;-0.470;2022-09-14T06:52:01;1;1;
39955;PMS5003;25631;51.516;-0.470;2022-09-14T06:54:38;1;1;
39955;PMS5003;25631;51.516;-0.470;2022-09-14T06:57:14;1;1;
39955;PMS5003;25631;51.516;-0.470;2022-09-14T06:59:50;1;1;
39955;PMS5003;25631;51.516;-0.470;2022-09-14T07:02:26;1;1;
39955;PMS5003;25631;51.516;-0.470;2022-09-14T07:05:03;1;1;
39955;PMS5003;25631;51.516;-0.470;2022-09-14T07:07:40;1;1;
39955;PMS5003;25631;51.516;-0.470;2022-09-14T07:10:16;1;1;
39955;PMS5003;25631;51.516;-0.470;2022-09-14T07:12:52;1;1;
39955;PMS5003;25631;51.516;-0.470;2022-09-14T07:15:29;1;1;
39955;PMS5003;25631;51.516;-0.470;2022-09-14T07:18:05;1;1;
39955;PMS5003;25631;51.516;-0.470;2022-09-14T07:20:41;0;0;
39955;PMS5003;25631;51.516;-0.470;2022-09-14T07:23:18;0;0;
39955;PMS5003;25631;51.516;-0.470;2022-09-14T07:25:58;1;1;
39955;PMS5003;25631;51.516;-0.470;2022-09-14T07:28:36;1;1;
39955;PMS5003;25631;51.516;-0.470;2022-09-14T07:31:13;1;1;
39955;PMS5003;25631;51.516;-0.470;2022-09-14T07:33:52;1;1;
39955;PMS5003;25631;51.516;-0.470;2022-09-14T07:36:30;1;1;
39955;PMS5003;25631;51.516;-0.470;2022-09-14T07:39:09;1;1;
39955;PMS5003;25631;51.516;-0.470;2022-09-14T07:41:47;1;1;
39955;PMS5003;25631;51.516;-0.470;2022-09-14T07:44:23;1;1;
39955;PMS5003;25631;51.516;-0.470;2022-09-14T07:47:00;1;1;
39955;PMS5003;25631;51.516;-0.470;2022-09-14T07:49:36;1;1;
39955;PMS5003;25631;51.516;-0.470;2022-09-14T07:52:12;1;1;
39955;PMS5003;25631;51.516;-0.470;2022-09-14T07:54:48;1;1;
39955;PMS5003;25631;51.516;-0.470;2022-09-14T07:57:25;1;1;
39955;PMS5003;25631;51.516;-0.470;2022-09-14T08:00:01;1;1;
39955;PMS5003;25631;51.516;-0.470;2022-09-14T08:02:38;1;1;
39955;PMS5003;25631;51.516;-0.470;2022-09-14T08:05:15;1;1;
39955;PMS5003;25631;51.516;-0.470;2022-09-14T08:07:52;4;4;
39955;PMS5003;25631;51.516;-0.470;2022-09-14T08:10:29;4;4;
39955;PMS5003;25631;51.516;-0.470;2022-09-14T08:13:05;5;5;
39955;PMS5003;25631;51.516;-0.470;2022-09-14T08:15:41;5;5;
39955;PMS5003;25631;51.516;-0.470;2022-09-14T08:18:18;5;5;
39955;PMS5003;25631;51.516;-0.470;2022-09-14T08:20:54;5;5;
39955;PMS5003;25631;51.516;-0.470;2022-09-14T08:23:31;5;5;
39955;PMS5003;25631;51.516;-0.470;2022-09-14T08:26:08;5;5;
39955;PMS5003;25631;51.516;-0.470;2022-09-14T08:28:46;5;5;
39955;PMS5003;25631;51.516;-0.470;2022-09-14T08:31:24;5;5;
39955;PMS5003;25631;51.516;-0.470;2022-09-14T08:34:02;5;5;
39955;PMS5003;25631;51.516;-0.470;2022-09-14T08:36:40;7;6;
39955;PMS5003;25631;51.516;-0.470;2022-09-14T08:39:17;7;6;
39955;PMS5003;25631;51.516;-0.470;2022-09-14T08:41:54;7;6;
39955;PMS5003;25631;51.516;-0.470;2022-09-14T08:44:34;7;7;
39955;PMS5003;25631;51.516;-0.470;2022-09-14T08:47:15;7;7;
39955;PMS5003;25631;51.516;-0.470;2022-09-14T08:49:57;2;1;
39955;PMS5003;25631;51.516;-0.470;2022-09-14T08:52:39;2;1;
39955;PMS5003;25631;51.516;-0.470;2022-09-14T08:55:19;2;1;
39955;PMS5003;25631;51.516;-0.470;2022-09-14T08:58:06;2;1;
39955;PMS5003;25631;51.516;-0.470;2022-09-14T09:00:56;2;1;
39955;PMS5003;25631;51.516;-0.470;2022-09-14T09:03:47;2;1;
39955;PMS5003;25631;51.516;-0.470;2022-09-14T09:06:35;2;1;
39955;PMS5003;25631;51.516;-0.470;2022-09-14T09:09:18;2;1;
39955;PMS5003;25631;51.516;-0.470;2022-09-14T09:12:03;2;1;
39955;PMS5003;25631;51.516;-0.470;2022-09-14T09:14:40;3;1;
39955;PMS5003;25631;51.516;-0.470;2022-09-14T09:17:27;3;1;
39955;PMS5003;25631;51.516;-0.470;2022-09-14T09:20:08;3;1;
39955;PMS5003;25631;51.516;-0.470;2022-09-14T09:22:51;3;2;
39955;PMS5003;25631;51.516;-0.470;2022-09-14T09:25:39;3;2;
39955;PMS5003;25631;51.516;-0.470;2022-09-14T09:28:26;3;2;
39955;PMS5003;25631;51.516;-0.470;2022-09-14T09:31:03;3;2;
39955;PMS5003;25631;51.516;-0.470;2022-09-14T09:33:41;1;0;
39955;PMS5003;25631;51.516;-0.470;2022-09-14T09:36:21;1;0;
39955;PMS5003;25631;51.516;-0.470;2022-09-14T09:38:57;2;1;
39955;PMS5003;25631;51.516;-0.470;2022-09-14T09:41:36;2;1;
39955;PMS5003;25631;51.516;-0.470;2022-09-14T09:44:19;2;1;
39955;PMS5003;25631;51.516;-0.470;2022-09-14T09:46:56;2;1;
39955;PMS5003;25631;51.516;-0.470;2022-09-14T09:49:35;2;1;
39955;PMS5003;25631;51.516;-0.470;2022-09-14T09:52:14;2;1;
39955;PMS5003;25631;51.516;-0.470;2022-09-14T09:54:52;2;1;
39955;PMS5003;25631;51.516;-0.470;2022-09-14T09:57:31;2;2;
39955;PMS5003;25631;51.516;-0.470;2022-09-14T10:00:17;2;2;
39955;PMS5003;25631;51.516;-0.470;2022-09-14T10:02:57;2;2;
39955;PMS5003;25631;51.516;-0.470;2022-09-14T10:05:59;2;1;
39955;PMS5003;25631;51.516;-0.470;2022-09-14T10:08:40;2;1;
39955;PMS5003;25631;51.516;-0.470;2022-09-14T10:11:26;2;1;
39955;PMS5003;25631;51.516;-0.470;2022-09-14T10:14:05;2;2;
39955;PMS5003;25631;51.516;-0.470;2022-09-14T10:17:05;2;1;
39955;PMS5003;25631;51.516;-0.470;2022-09-14T10:19:55;2;1;
39955;PMS5003;25631;51.516;-0.470;2022-09-14T10:22:32;2;1;
39955;PMS5003;25631;51.516;-0.470;2022-09-14T10:25:19;2;1;
39955;PMS5003;25631;51.516;-0.470;2022-09-14T10:27:58;1;0;
39955;PMS5003;25631;51.516;-0.470;2022-09-14T10:30:36;1;0;
39955;PMS5003;25631;51.516;-0.470;2022-09-14T10:33:19;1;0;
39955;PMS5003;25631;51.516;-0.470;2022-09-14T10:35:57;1;0;
39955;PMS5003;25631;51.516;-0.470;2022-09-14T10:38:45;1;0;
39955;PMS5003;25631;51.516;-0.470;2022-09-14T10:41:25;1;0;
39955;PMS5003;25631;51.516;-0.470;2022-09-14T10:44:44;1;0;
39955;PMS5003;25631;51.516;-0.470;2022-09-14T10:47:32;2;1;
39955;PMS5003;25631;51.516;-0.470;2022-09-14T10:50:25;2;1;
39955;PMS5003;25631;51.516;-0.470;2022-09-14T10:53:11;2;1;
39955;PMS5003;25631;51.516;-0.470;2022-09-14T10:55:59;1;0;
39955;PMS5003;25631;51.516;-0.470;2022-09-14T10:58:55;1;0;
39955;PMS5003;25631;51.516;-0.470;2022-09-14T11:01:49;1;1;
39955;PMS5003;25631;51.516;-0.470;2022-09-14T11:04:42;1;1;
39955;PMS5003;25631;51.516;-0.470;2022-09-14T11:07:33;1;1;
39955;PMS5003;25631;51.516;-0.470;2022-09-14T11:10:17;1;1;
39955;PMS5003;25631;51.516;-0.470;2022-09-14T11:13:06;1;1;
39955;PMS5003;25631;51.516;-0.470;2022-09-14T11:16:00;1;1;
39955;PMS5003;25631;51.516;-0.470;2022-09-14T11:18:46;1;1;
39955;PMS5003;25631;51.516;-0.470;2022-09-14T11:21:34;1;1;
39955;PMS5003;25631;51.516;-0.470;2022-09-14T11:24:23;1;1;
39955;PMS5003;25631;51.516;-0.470;2022-09-14T11:27:03;1;1;
39955;PMS5003;25631;51.516;-0.470;2022-09-14T11:29:47;1;1;
39955;PMS5003;25631;51.516;-0.470;2022-09-14T11:32:29;2;1;
39955;PMS5003;25631;51.516;-0.470;2022-09-14T11:35:12;2;1;
39955;PMS5003;25631;51.516;-0.470;2022-09-14T11:37:54;2;1;
39955;PMS5003;25631;51.516;-0.470;2022-09-14T11:40:34;2;1;
39955;PMS5003;25631;51.516;-0.470;2022-09-14T11:43:17;2;1;
39955;PMS5003;25631;51.516;-0.470;2022-09-14T11:46:04;1;1;
39955;PMS5003;25631;51.516;-0.470;2022-09-14T11:48:43;1;1;
39955;PMS5003;25631;51.516;-0.470;2022-09-14T11:51:28;1;1;
39955;PMS5003;25631;51.516;-0.470;2022-09-14T11:54:12;1;1;
39955;PMS5003;25631;51.516;-0.470;2022-09-14T11:56:52;1;1;
39955;PMS5003;25631;51.516;-0.470;2022-09-14T11:59:48;1;1;
39955;PMS5003;25631;51.516;-0.470;2022-09-14T12:02:43;1;1;
39955;PMS5003;25631;51.516;-0.470;2022-09-14T12:05:24;1;1;
39955;PMS5003;25631;51.516;-0.470;2022-09-14T12:08:23;1;1;
39955;PMS5003;25631;51.516;-0.470;2022-09-14T12:11:04;1;1;
39955;PMS5003;25631;51.516;-0.470;2022-09-14T12:14:33;1;1;
39955;PMS5003;25631;51.516;-0.470;2022-09-14T12:17:13;1;1;
39955;PMS5003;25631;51.516;-0.470;2022-09-14T12:19:52;1;1;
39955;PMS5003;25631;51.516;-0.470;2022-09-14T12:22:34;1;1;
39955;PMS5003;25631;51.516;-0.470;2022-09-14T12:25:15;1;1;
39955;PMS5003;25631;51.516;-0.470;2022-09-14T12:27:53;1;1;
39955;PMS5003;25631;51.516;-0.470;2022-09-14T12:30:34;2;2;
39955;PMS5003;25631;51.516;-0.470;2022-09-14T12:33:43;2;2;
39955;PMS5003;25631;51.516;-0.470;2022-09-14T12:37:32;2;2;
39955;PMS5003;25631;51.516;-0.470;2022-09-14T12:40:44;2;2;
39955;PMS5003;25631;51.516;-0.470;2022-09-14T12:43:45;2;2;
39955;PMS5003;25631;51.516;-0.470;2022-09-14T12:46:31;2;2;
39955;PMS5003;25631;51.516;-0.470;2022-09-14T12:49:21;2;2;
39955;PMS5003;25631;51.516;-0.470;2022-09-14T12:52:04;2;2;
39955;PMS5003;25631;51.516;-0.470;2022-09-14T12:55:05;1;1;
39955;PMS5003;25631;51.516;-0.470;2022-09-14T12:57:55;1;1;
39955;PMS5003;25631;51.516;-0.470;2022-09-14T13:00:44;1;1;
39955;PMS5003;25631;51.516;-0.470;2022-09-14T13:03:36;1;1;
39955;PMS5003;25631;51.516;-0.470;2022-09-14T13:06:21;2;2;
39955;PMS5003;25631;51.516;-0.470;2022-09-14T13:09:01;2;2;
39955;PMS5003;25631;51.516;-0.470;2022-09-14T13:11:38;2;2;
39955;PMS5003;25631;51.516;-0.470;2022-09-14T13:14:15;3;2;
39955;PMS5003;25631;51.516;-0.470;2022-09-14T13:16:53;3;3;
39955;PMS5003;25631;51.516;-0.470;2022-09-14T13:19:32;3;3;
39955;PMS5003;25631;51.516;-0.470;2022-09-14T13:22:16;3;3;
39955;PMS5003;25631;51.516;-0.470;2022-09-14T13:24:54;3;3;
39955;PMS5003;25631;51.516;-0.470;2022-09-14T13:27:31;3;3;
39955;PMS5003;25631;51.516;-0.470;2022-09-14T13:30:16;3;3;
39955;PMS5003;25631;51.516;-0.470;2022-09-14T13:32:55;3;2;
39955;PMS5003;25631;51.516;-0.470;2022-09-14T13:35:34;3;2;
39955;PMS5003;25631;51.516;-0.470;2022-09-14T13:38:14;3;2;
39955;PMS5003;25631;51.516;-0.470;2022-09-14T13:40:53;3;2;
39955;PMS5003;25631;51.516;-0.470;2022-09-14T13:43:38;3;2;
39955;PMS5003;25631;51.516;-0.470;2022-09-14T13:46:16;3;2;
39955;PMS5003;25631;51.516;-0.470;2022-09-14T13:48:53;2;2;
39955;PMS5003;25631;51.516;-0.470;2022-09-14T13:51:30;2;2;
39955;PMS5003;25631;51.516;-0.470;2022-09-14T13:54:26;2;2;
39955;PMS5003;25631;51.516;-0.470;2022-09-14T13:57:11;5;5;
39955;PMS5003;25631;51.516;-0.470;2022-09-14T14:00:10;4;4;
39955;PMS5003;25631;51.516;-0.470;2022-09-14T14:02:52;4;4;
39955;PMS5003;25631;51.516;-0.470;2022-09-14T14:05:40;4;4;
39955;PMS5003;25631;51.516;-0.470;2022-09-14T14:08:23;4;4;
39955;PMS5003;25631;51.516;-0.470;2022-09-14T14:11:03;5;5;
39955;PMS5003;25631;51.516;-0.470;2022-09-14T14:13:41;5;5;
39955;PMS5003;25631;51.516;-0.470;2022-09-14T14:16:18;6;6;
39955;PMS5003;25631;51.516;-0.470;2022-09-14T14:18:56;6;6;
39955;PMS5003;25631;51.516;-0.470;2022-09-14T14:21:33;6;6;
39955;PMS5003;25631;51.516;-0.470;2022-09-14T14:24:22;6;6;
39955;PMS5003;25631;51.516;-0.470;2022-09-14T14:27:00;6;6;
39955;PMS5003;25631;51.516;-0.470;2022-09-14T14:29:37;6;6;
39955;PMS5003;25631;51.516;-0.470;2022-09-14T14:32:13;6;6;
39955;PMS5003;25631;51.516;-0.470;2022-09-14T14:34:49;6;6;
39955;PMS5003;25631;51.516;-0.470;2022-09-14T14:37:26;6;6;
39955;PMS5003;25631;51.516;-0.470;2022-09-14T14:40:02;4;3;
39955;PMS5003;25631;51.516;-0.470;2022-09-14T14:42:39;5;4;
39955;PMS5003;25631;51.516;-0.470;2022-09-14T14:45:17;4;4;
39955;PMS5003;25631;51.516;-0.470;2022-09-14T14:47:55;4;4;
39955;PMS5003;25631;51.516;-0.470;2022-09-14T14:50:33;4;4;
39955;PMS5003;25631;51.516;-0.470;2022-09-14T14:53:09;4;4;
39955;PMS5003;25631;51.516;-0.470;2022-09-14T14:55:46;4;4;
39955;PMS5003;25631;51.516;-0.470;2022-09-14T14:58:22;4;4;
39955;PMS5003;25631;51.516;-0.470;2022-09-14T15:00:59;4;4;
39955;PMS5003;25631;51.516;-0.470;2022-09-14T15:03:35;4;4;
39955;PMS5003;25631;51.516;-0.470;2022-09-14T15:06:12;4;4;
39955;PMS5003;25631;51.516;-0.470;2022-09-14T15:08:51;4;4;
39955;PMS5003;25631;51.516;-0.470;2022-09-14T15:11:28;4;4;
39955;PMS5003;25631;51.516;-0.470;2022-09-14T15:14:04;4;4;
39955;PMS5003;25631;51.516;-0.470;2022-09-14T15:16:40;4;4;
39955;PMS5003;25631;51.516;-0.470;2022-09-14T15:19:18;4;4;
39955;PMS5003;25631;51.516;-0.470;2022-09-14T15:21:54;6;4;
39955;PMS5003;25631;51.516;-0.470;2022-09-14T15:24:31;6;4;
39955;PMS5003;25631;51.516;-0.470;2022-09-14T15:27:07;6;4;
39955;PMS5003;25631;51.516;-0.470;2022-09-14T15:29:43;6;4;
39955;PMS5003;25631;51.516;-0.470;2022-09-14T15:32:20;6;4;
39955;PMS5003;25631;51.516;-0.470;2022-09-14T15:34:56;6;4;
39955;PMS5003;25631;51.516;-0.470;2022-09-14T15:37:32;7;5;
39955;PMS5003;25631;51.516;-0.470;2022-09-14T15:40:09;7;5;
39955;PMS5003;25631;51.516;-0.470;2022-09-14T15:42:46;7;5;
39955;PMS5003;25631;51.516;-0.470;2022-09-14T15:45:22;6;4;
39955;PMS5003;25631;51.516;-0.470;2022-09-14T15:47:58;6;4;
39955;PMS5003;25631;51.516;-0.470;2022-09-14T15:50:35;6;4;
39955;PMS5003;25631;51.516;-0.470;2022-09-14T15:53:15;6;4;
39955;PMS5003;25631;51.516;-0.470;2022-09-14T15:55:52;6;4;
39955;PMS5003;25631;51.516;-0.470;2022-09-14T15:58:29;6;4;
39955;PMS5003;25631;51.516;-0.470;2022-09-14T16:01:06;6;4;
39955;PMS5003;25631;51.516;-0.470;2022-09-14T16:03:43;2;2;
39955;PMS5003;25631;51.516;-0.470;2022-09-14T16:06:20;2;2;
39955;PMS5003;25631;51.516;-0.470;2022-09-14T16:08:56;2;2;
39955;PMS5003;25631;51.516;-0.470;2022-09-14T16:11:35;2;2;
39955;PMS5003;25631;51.516;-0.470;2022-09-14T16:14:12;3;3;
39955;PMS5003;25631;51.516;-0.470;2022-09-14T16:16:48;3;3;
39955;PMS5003;25631;51.516;-0.470;2022-09-14T16:19:25;3;3;
39955;PMS5003;25631;51.516;-0.470;2022-09-14T16:22:02;3;3;
39955;PMS5003;25631;51.516;-0.470;2022-09-14T16:24:39;3;3;
39955;PMS5003;25631;51.516;-0.470;2022-09-14T16:27:15;3;3;
39955;PMS5003;25631;51.516;-0.470;2022-09-14T16:29:52;3;3;
39955;PMS5003;25631;51.516;-0.470;2022-09-14T16:32:28;3;3;
39955;PMS5003;25631;51.516;-0.470;2022-09-14T16:35:05;3;3;
39955;PMS5003;25631;51.516;-0.470;2022-09-14T16:37:42;3;3;
39955;PMS5003;25631;51.516;-0.470;2022-09-14T16:40:18;3;3;
39955;PMS5003;25631;51.516;-0.470;2022-09-14T16:42:54;3;3;
39955;PMS5003;25631;51.516;-0.470;2022-09-14T16:45:30;5;4;
39955;PMS5003;25631;51.516;-0.470;2022-09-14T16:48:07;4;3;
39955;PMS5003;25631;51.516;-0.470;2022-09-14T16:50:43;4;3;
39955;PMS5003;25631;51.516;-0.470;2022-09-14T16:53:20;4;3;
39955;PMS5003;25631;51.516;-0.470;2022-09-14T16:56:00;4;3;
39955;PMS5003;25631;51.516;-0.470;2022-09-14T16:58:37;4;3;
39955;PMS5003;25631;51.516;-0.470;2022-09-14T17:01:18;4;3;
39955;PMS5003;25631;51.516;-0.470;2022-09-14T17:03:57;3;3;
39955;PMS5003;25631;51.516;-0.470;2022-09-14T17:06:36;3;3;
39955;PMS5003;25631;51.516;-0.470;2022-09-14T17:09:14;3;3;
39955;PMS5003;25631;51.516;-0.470;2022-09-14T17:11:53;3;2;
39955;PMS5003;25631;51.516;-0.470;2022-09-14T17:14:31;3;2;
39955;PMS5003;25631;51.516;-0.470;2022-09-14T17:17:08;3;2;
39955;PMS5003;25631;51.516;-0.470;2022-09-14T17:19:44;3;3;
39955;PMS5003;25631;51.516;-0.470;2022-09-14T17:22:21;3;3;
39955;PMS5003;25631;51.516;-0.470;2022-09-14T17:24:57;3;3;
39955;PMS5003;25631;51.516;-0.470;2022-09-14T17:27:33;1;1;
39955;PMS5003;25631;51.516;-0.470;2022-09-14T17:30:10;1;1;
39955;PMS5003;25631;51.516;-0.470;2022-09-14T17:32:47;1;1;
39955;PMS5003;25631;51.516;-0.470;2022-09-14T17:35:24;1;1;
39955;PMS5003;25631;51.516;-0.470;2022-09-14T17:38:00;1;1;
39955;PMS5003;25631;51.516;-0.470;2022-09-14T17:40:36;1;1;
39955;PMS5003;25631;51.516;-0.470;2022-09-14T17:43:13;1;1;
39955;PMS5003;25631;51.516;-0.470;2022-09-14T17:45:50;1;1;
39955;PMS5003;25631;51.516;-0.470;2022-09-14T17:48:30;1;1;
39955;PMS5003;25631;51.516;-0.470;2022-09-14T17:51:08;1;1;
39955;PMS5003;25631;51.516;-0.470;2022-09-14T17:53:46;1;1;
39955;PMS5003;25631;51.516;-0.470;2022-09-14T17:56:24;1;1;
39955;PMS5003;25631;51.516;-0.470;2022-09-14T17:59:03;1;1;
39955;PMS5003;25631;51.516;-0.470;2022-09-14T18:01:41;1;1;